Time;durP1;ratioP1;P1;durP2;ratioP2;P2;SDS_P1;SDS_P2;PMS_P1;PMS_P2;Temp;Humidity;BMP_temperature;BMP_pressure;BME280_temperature;BME280_humidity;BME280_pressure;Samples;Min_cycle;Max_cycle;Signal;HPM_P1;HPM_P2
2022/09/12 00:01:36;;;;;;;16.92;11.70;;;17.10;99.90;;;;;;5034726;28;20043;-40
2022/09/12 00:04:02;;;;;;;20.23;12.55;;;17.10;99.90;;;;;;5018590;28;20033;-39
2022/09/12 00:06:33;;;;;;;20.88;13.57;;;17.10;99.90;;;;;;5048099;28;20370;-42
2022/09/12 00:09:13;;;;;;;19.27;12.70;;;17.10;99.90;;;;;;5055203;28;20013;-40
2022/09/12 00:11:42;;;;;;;19.35;13.10;;;17.10;99.90;;;;;;5033084;28;20033;-42
2022/09/12 00:14:11;;;;;;;24.55;12.98;;;17.10;99.90;;;;;;5034352;28;20053;-39
2022/09/12 00:16:37;;;;;;;21.75;13.27;;;17.00;99.90;;;;;;5052709;28;20477;-39
2022/09/12 00:19:04;;;;;;;21.30;12.30;;;17.00;99.90;;;;;;5036676;28;20031;-38
2022/09/12 00:21:32;;;;;;;24.95;14.68;;;17.00;99.90;;;;;;5019140;28;20470;-38
2022/09/12 00:23:58;;;;;;;21.13;12.93;;;17.00;99.90;;;;;;5016876;28;20044;-40
2022/09/12 00:26:24;;;;;;;18.58;12.43;;;17.00;99.90;;;;;;5025873;28;20025;-44
2022/09/12 00:28:50;;;;;;;20.65;13.35;;;16.90;99.90;;;;;;5026349;28;20523;-35
2022/09/12 00:31:19;;;;;;;27.00;14.35;;;16.90;99.90;;;;;;5026907;28;20458;-34
2022/09/12 00:33:45;;;;;;;22.80;13.73;;;16.90;99.90;;;;;;5024555;28;20068;-39
2022/09/12 00:36:22;;;;;;;22.13;13.98;;;16.90;99.90;;;;;;5025373;28;20026;-39
2022/09/12 00:38:49;;;;;;;22.80;14.85;;;16.80;99.90;;;;;;5027531;28;20409;-40
2022/09/12 00:41:25;;;;;;;25.48;13.88;;;16.80;99.90;;;;;;5021358;28;20085;-44
2022/09/12 00:44:19;;;;;;;22.67;13.80;;;16.80;99.90;;;;;;5022383;28;20538;-48
2022/09/12 00:46:48;;;;;;;20.83;12.65;;;16.70;99.90;;;;;;5024834;28;20409;-39
2022/09/12 00:49:22;;;;;;;23.92;13.80;;;16.70;99.90;;;;;;5027403;28;20454;-39
2022/09/12 00:52:13;;;;;;;26.25;15.32;;;16.70;99.90;;;;;;5023491;28;22000;-40
2022/09/12 00:54:54;;;;;;;25.23;14.70;;;16.70;99.90;;;;;;5025823;28;20106;-40
2022/09/12 00:57:24;;;;;;;21.00;13.45;;;16.80;99.90;;;;;;5029143;28;20370;-39
2022/09/12 00:59:56;;;;;;;23.02;14.02;;;16.70;99.90;;;;;;5034235;28;20090;-36
2022/09/12 01:02:22;;;;;;;22.55;14.20;;;16.70;99.90;;;;;;5034035;28;20064;-33
2022/09/12 01:04:48;;;;;;;28.73;14.93;;;16.70;99.90;;;;;;5053607;28;20049;-34
2022/09/12 01:07:14;;;;;;;24.10;14.23;;;16.70;99.90;;;;;;5054268;28;20013;-38
2022/09/12 01:09:42;;;;;;;25.45;14.82;;;16.60;99.90;;;;;;5054208;28;20074;-51
2022/09/12 01:12:08;;;;;;;25.35;14.95;;;16.60;99.90;;;;;;5016209;28;20580;-40
2022/09/12 01:14:34;;;;;;;24.63;15.13;;;16.60;99.90;;;;;;5017602;28;20022;-40
2022/09/12 01:17:00;;;;;;;27.80;14.93;;;16.60;99.90;;;;;;5053801;28;20024;-40
2022/09/12 01:19:51;;;;;;;28.27;15.40;;;16.50;99.90;;;;;;5053648;28;20078;-36
2022/09/12 01:23:13;;;;;;;23.08;14.18;;;16.50;99.90;;;;;;5051430;28;20536;-34
2022/09/12 01:26:09;;;;;;;26.50;14.93;;;16.50;99.90;;;;;;5043860;28;20523;-40
2022/09/12 01:29:00;;;;;;;25.77;15.55;;;16.50;99.90;;;;;;5044407;28;20036;-39
2022/09/12 01:31:37;;;;;;;27.55;14.63;;;16.50;99.90;;;;;;5027296;28;20075;-40
2022/09/12 01:34:25;;;;;;;26.55;14.68;;;16.50;99.90;;;;;;5013568;28;20092;-44
2022/09/12 01:37:08;;;;;;;26.55;15.60;;;16.40;99.90;;;;;;5028612;28;20040;-41
2022/09/12 01:39:52;;;;;;;24.05;14.80;;;16.40;99.90;;;;;;5015303;28;20038;-33
2022/09/12 01:42:35;;;;;;;28.15;15.27;;;16.40;99.90;;;;;;5021666;28;20525;-32
2022/09/12 01:45:04;;;;;;;26.08;14.23;;;16.40;99.90;;;;;;5033012;28;20031;-32
2022/09/12 01:47:40;;;;;;;28.65;15.20;;;16.40;99.90;;;;;;5032674;28;20473;-36
2022/09/12 01:50:15;;;;;;;25.60;14.73;;;16.40;99.90;;;;;;5019621;28;20038;-36
2022/09/12 01:52:52;;;;;;;22.42;14.30;;;16.30;99.90;;;;;;5014048;28;20034;-34
2022/09/12 01:55:32;;;;;;;24.23;14.27;;;16.30;99.90;;;;;;5018631;28;20029;-40
2022/09/12 01:58:12;;;;;;;25.88;16.13;;;16.30;99.90;;;;;;5013313;28;20038;-31
2022/09/12 02:00:50;;;;;;;30.88;14.88;;;16.30;99.90;;;;;;5027301;28;20381;-34
2022/09/12 02:03:22;;;;;;;31.45;15.68;;;16.30;99.90;;;;;;5030733;28;20544;-33
2022/09/12 02:05:58;;;;;;;28.38;15.13;;;16.30;99.90;;;;;;5028881;28;20517;-34
2022/09/12 02:08:32;;;;;;;27.15;16.00;;;16.20;99.90;;;;;;5024784;28;20083;-34
2022/09/12 02:11:10;;;;;;;26.90;15.15;;;16.20;99.90;;;;;;5013866;28;20076;-35
2022/09/12 02:13:39;;;;;;;31.60;15.73;;;16.20;99.90;;;;;;5016508;28;20500;-38
2022/09/12 02:16:30;;;;;;;28.42;16.10;;;16.20;99.90;;;;;;5052978;28;20025;-39
2022/09/12 02:19:02;;;;;;;29.83;16.05;;;16.20;99.90;;;;;;5024632;28;20026;-39
2022/09/12 02:21:31;;;;;;;26.85;15.68;;;16.20;99.90;;;;;;5049378;28;20469;-40
2022/09/12 02:24:01;;;;;;;32.92;15.82;;;16.20;99.90;;;;;;5035560;28;20025;-40
2022/09/12 02:26:43;;;;;;;30.15;17.00;;;16.20;99.90;;;;;;5052834;28;20067;-39
2022/09/12 02:29:08;;;;;;;32.63;17.70;;;16.10;99.90;;;;;;5052670;28;20017;-40
2022/09/12 02:31:58;;;;;;;29.90;17.98;;;16.20;99.90;;;;;;5052755;28;20085;-42
2022/09/12 02:34:27;;;;;;;30.65;16.88;;;16.10;99.90;;;;;;5053183;28;20021;-40
2022/09/12 02:37:10;;;;;;;34.08;16.92;;;16.10;99.90;;;;;;5042617;28;20030;-40
2022/09/12 02:39:35;;;;;;;30.73;17.27;;;16.10;99.90;;;;;;5032797;28;20504;-39
2022/09/12 02:42:02;;;;;;;30.10;16.75;;;16.10;99.90;;;;;;5033081;28;20017;-41
2022/09/12 02:44:29;;;;;;;32.47;18.63;;;16.00;99.90;;;;;;5031342;28;20053;-32
2022/09/12 02:47:03;;;;;;;31.77;16.48;;;16.10;99.90;;;;;;5030974;28;20025;-31
2022/09/12 02:49:29;;;;;;;32.42;17.60;;;16.00;99.90;;;;;;5012857;28;20022;-32
2022/09/12 02:51:55;;;;;;;30.65;17.27;;;16.00;99.90;;;;;;5017161;28;20021;-34
2022/09/12 02:54:21;;;;;;;33.80;18.25;;;16.00;99.90;;;;;;5015332;28;20030;-38
2022/09/12 02:56:46;;;;;;;29.80;16.52;;;16.00;99.90;;;;;;5015597;28;20473;-32
2022/09/12 02:59:17;;;;;;;36.40;18.55;;;16.00;99.90;;;;;;5016922;28;20018;-34
2022/09/12 03:02:23;;;;;;;33.30;17.98;;;16.00;99.90;;;;;;5016177;28;20030;-33
2022/09/12 03:04:59;;;;;;;30.30;16.52;;;16.00;99.90;;;;;;5014363;28;20076;-47
2022/09/12 03:07:55;;;;;;;25.83;16.27;;;16.00;99.90;;;;;;5024294;28;20025;-41
2022/09/12 03:10:41;;;;;;;30.27;16.95;;;15.90;99.90;;;;;;5043238;28;20470;-46
2022/09/12 03:13:45;;;;;;;28.52;15.73;;;15.90;99.90;;;;;;5026016;28;20025;-38
2022/09/12 03:16:10;;;;;;;28.05;16.00;;;15.90;99.90;;;;;;5053822;28;20075;-34
2022/09/12 03:19:21;;;;;;;30.88;16.77;;;15.90;99.90;;;;;;5053905;28;20481;-35
2022/09/12 03:22:11;;;;;;;32.80;16.77;;;16.00;99.90;;;;;;5020718;28;20485;-31
2022/09/12 03:25:06;;;;;;;28.17;16.08;;;16.00;99.90;;;;;;5055450;28;20090;-33
2022/09/12 03:27:39;;;;;;;29.30;16.38;;;15.90;99.90;;;;;;5050487;28;20034;-33
2022/09/12 03:30:07;;;;;;;30.58;16.08;;;15.90;99.90;;;;;;5033731;28;20382;-32
2022/09/12 03:32:40;;;;;;;32.05;17.92;;;15.90;99.90;;;;;;5035503;28;20424;-37
2022/09/12 03:35:06;;;;;;;30.85;17.20;;;15.80;99.90;;;;;;5035640;28;20466;-32
2022/09/12 03:37:32;;;;;;;32.95;15.55;;;15.80;99.90;;;;;;5033872;28;20383;-34
2022/09/12 03:39:58;;;;;;;32.03;17.73;;;15.80;99.90;;;;;;5055764;28;20032;-33
2022/09/12 03:42:23;;;;;;;29.55;17.35;;;15.80;99.90;;;;;;5033696;28;20021;-33
2022/09/12 03:44:49;;;;;;;32.65;16.35;;;15.80;99.90;;;;;;5034916;28;20026;-36
2022/09/12 03:47:14;;;;;;;29.65;17.17;;;15.80;99.90;;;;;;5035552;28;20044;-33
2022/09/12 03:49:40;;;;;;;31.13;17.98;;;15.80;99.90;;;;;;5024753;28;20022;-37
2022/09/12 03:52:06;;;;;;;32.90;17.73;;;15.90;99.90;;;;;;5012982;28;20018;-35
2022/09/12 03:54:32;;;;;;;32.65;17.85;;;15.80;99.90;;;;;;5046208;28;20473;-39
2022/09/12 03:56:58;;;;;;;31.58;17.52;;;15.90;99.90;;;;;;5055564;28;20032;-40
2022/09/12 03:59:23;;;;;;;35.75;17.45;;;15.90;99.90;;;;;;5024898;28;20454;-39
2022/09/12 04:01:49;;;;;;;31.27;15.88;;;15.90;99.90;;;;;;5016062;28;20544;-39
2022/09/12 04:04:14;;;;;;;35.30;16.45;;;15.90;99.90;;;;;;5015552;28;20030;-39
2022/09/12 04:06:41;;;;;;;34.53;17.02;;;15.90;99.90;;;;;;5015419;28;20030;-37
2022/09/12 04:09:07;;;;;;;31.30;16.33;;;15.80;99.90;;;;;;5033983;28;20096;-38
2022/09/12 04:11:34;;;;;;;34.83;16.73;;;15.90;99.90;;;;;;5054972;28;20414;-37
2022/09/12 04:14:00;;;;;;;28.08;16.38;;;15.80;99.90;;;;;;5042459;28;20167;-32
2022/09/12 04:16:25;;;;;;;27.75;16.23;;;15.80;99.90;;;;;;5033515;28;20071;-33
2022/09/12 04:18:51;;;;;;;28.40;15.80;;;15.80;99.90;;;;;;5067011;28;20105;-32
2022/09/12 04:21:20;;;;;;;28.70;15.82;;;15.80;99.90;;;;;;5038285;28;20477;-36
2022/09/12 04:23:46;;;;;;;37.53;18.02;;;15.80;99.90;;;;;;5051331;28;20032;-31
2022/09/12 04:26:14;;;;;;;31.02;16.27;;;15.80;99.90;;;;;;5054692;28;20036;-33
2022/09/12 04:28:40;;;;;;;34.22;15.90;;;15.90;99.90;;;;;;5017195;28;20026;-37
2022/09/12 04:31:08;;;;;;;33.72;17.17;;;15.90;99.90;;;;;;5014967;28;20034;-37
2022/09/12 04:33:34;;;;;;;26.50;17.52;;;15.80;99.90;;;;;;5014908;28;20579;-36
2022/09/12 04:36:09;;;;;;;31.88;16.30;;;15.80;99.90;;;;;;5024978;28;20025;-33
2022/09/12 04:38:35;;;;;;;32.75;15.90;;;15.80;99.90;;;;;;5019175;28;20412;-34
2022/09/12 04:41:10;;;;;;;30.77;16.52;;;15.80;99.90;;;;;;5039543;28;20525;-31
2022/09/12 04:43:35;;;;;;;31.10;16.10;;;15.80;99.90;;;;;;5027909;28;20485;-35
2022/09/12 04:46:09;;;;;;;29.80;16.40;;;15.90;99.90;;;;;;5033234;28;20018;-34
2022/09/12 04:48:36;;;;;;;30.25;16.20;;;15.80;99.90;;;;;;5014655;28;20514;-31
2022/09/12 04:51:27;;;;;;;33.38;16.58;;;15.80;99.90;;;;;;5014542;28;20104;-32
2022/09/12 04:53:55;;;;;;;27.73;16.05;;;15.80;99.90;;;;;;5018299;28;20073;-31
2022/09/12 04:56:21;;;;;;;28.40;15.77;;;15.80;99.90;;;;;;5049515;28;20029;-33
2022/09/12 04:58:48;;;;;;;33.88;17.00;;;15.70;99.90;;;;;;5034454;28;20523;-32
2022/09/12 05:01:17;;;;;;;32.60;17.23;;;15.70;99.90;;;;;;5034127;28;20017;-37
2022/09/12 05:03:44;;;;;;;28.52;15.80;;;15.70;99.90;;;;;;5034327;28;20539;-39
2022/09/12 05:06:15;;;;;;;31.02;17.30;;;15.80;99.90;;;;;;5033038;28;20525;-39
2022/09/12 05:08:41;;;;;;;32.42;15.93;;;15.80;99.90;;;;;;5033793;28;20017;-38
2022/09/12 05:11:10;;;;;;;29.77;15.88;;;15.80;99.90;;;;;;5051888;28;20040;-33
2022/09/12 05:13:37;;;;;;;26.67;15.85;;;15.70;99.90;;;;;;5032576;28;20477;-40
2022/09/12 05:16:04;;;;;;;31.08;16.73;;;15.60;99.90;;;;;;5033768;28;20057;-37
2022/09/12 05:18:32;;;;;;;30.37;16.40;;;15.60;99.90;;;;;;5014172;28;20316;-41
2022/09/12 05:21:02;;;;;;;28.77;15.32;;;15.60;99.90;;;;;;5045299;28;20405;-41
2022/09/12 05:23:29;;;;;;;25.80;14.93;;;15.60;99.90;;;;;;5014336;28;20017;-41
2022/09/12 05:25:57;;;;;;;28.42;15.25;;;15.60;99.90;;;;;;5044517;28;20060;-40
2022/09/12 05:28:23;;;;;;;;;;;15.60;99.90;;;;;;5016393;28;20029;-43
2022/09/12 05:31:18;;;;;;;25.65;14.65;;;15.60;99.90;;;;;;5012641;28;19905;-44
2022/09/12 05:33:47;;;;;;;29.58;15.88;;;15.70;99.90;;;;;;5011553;28;20176;-58
2022/09/12 05:36:16;;;;;;;32.28;16.55;;;15.70;99.90;;;;;;5020908;28;20108;-40
2022/09/12 05:38:43;;;;;;;30.10;16.77;;;15.70;99.90;;;;;;5012379;28;20498;-40
2022/09/12 05:41:17;;;;;;;30.60;15.90;;;15.70;99.90;;;;;;5045967;28;20033;-42
2022/09/12 05:43:44;;;;;;;27.88;15.63;;;15.70;99.90;;;;;;5031890;28;20029;-41
2022/09/12 05:46:18;;;;;;;26.47;14.40;;;15.60;99.90;;;;;;5032422;28;20018;-42
2022/09/12 05:48:45;;;;;;;27.13;14.60;;;15.70;99.90;;;;;;5027388;28;20022;-40
2022/09/12 05:51:13;;;;;;;29.92;16.02;;;15.60;99.90;;;;;;5013581;28;20389;-55
2022/09/12 05:53:40;;;;;;;28.73;15.70;;;15.60;99.90;;;;;;5036755;28;20021;-41
2022/09/12 05:56:09;;;;;;;32.83;15.02;;;15.50;99.90;;;;;;5040965;28;20525;-40
2022/09/12 05:58:37;;;;;;;34.13;16.38;;;15.60;99.90;;;;;;5013514;28;20513;-39
2022/09/12 06:01:07;;;;;;;30.13;16.27;;;15.70;99.90;;;;;;5013674;28;20029;-40
2022/09/12 06:03:36;;;;;;;27.63;15.18;;;15.70;99.90;;;;;;5013397;28;20025;-41
2022/09/12 06:06:03;;;;;;;27.55;15.63;;;15.70;99.90;;;;;;5018163;28;20484;-44
2022/09/12 06:08:29;;;;;;;28.25;15.32;;;15.70;99.90;;;;;;5033076;28;20385;-41
2022/09/12 06:11:03;;;;;;;26.25;15.95;;;15.70;99.90;;;;;;5037623;28;20465;-39
2022/09/12 06:13:31;;;;;;;29.77;15.63;;;15.70;99.90;;;;;;5033082;28;20075;-41
2022/09/12 06:16:07;;;;;;;30.20;16.50;;;15.70;99.90;;;;;;5032407;28;20481;-39
2022/09/12 06:18:34;;;;;;;30.15;16.38;;;15.70;99.90;;;;;;5033200;28;20021;-38
2022/09/12 06:21:19;;;;;;;29.13;15.15;;;15.70;99.90;;;;;;5018576;28;20482;-41
2022/09/12 06:23:45;;;;;;;28.35;15.95;;;15.70;99.90;;;;;;5013198;28;20117;-42
2022/09/12 06:26:12;;;;;;;29.13;16.45;;;15.70;99.90;;;;;;5021201;28;20014;-41
2022/09/12 06:28:40;;;;;;;32.88;17.25;;;15.80;99.90;;;;;;5032921;28;20156;-38
2022/09/12 06:31:08;;;;;;;31.55;16.13;;;15.90;99.90;;;;;;5033047;28;20037;-40
2022/09/12 06:33:34;;;;;;;;;;;16.00;99.90;;;;;;5036722;28;20517;-40
2022/09/12 06:36:09;;;;;;;27.65;14.95;;;16.00;99.90;;;;;;5016498;28;19935;-40
2022/09/12 06:38:35;;;;;;;33.13;16.45;;;16.10;99.90;;;;;;5016796;28;20045;-42
2022/09/12 06:41:04;;;;;;;30.77;16.33;;;16.10;99.90;;;;;;5016837;28;20454;-42
2022/09/12 06:43:30;;;;;;;38.50;16.88;;;16.20;99.90;;;;;;5016728;28;20022;-40
2022/09/12 06:45:56;;;;;;;31.55;17.30;;;16.30;99.90;;;;;;5016966;28;20112;-43
2022/09/12 06:48:22;;;;;;;31.10;17.00;;;16.30;99.90;;;;;;5017236;28;20431;-41
2022/09/12 06:51:05;;;;;;;30.45;16.05;;;16.50;99.90;;;;;;5020351;28;20022;-45
2022/09/12 06:53:35;;;;;;;36.15;17.85;;;16.60;99.90;;;;;;5036733;28;20477;-41
2022/09/12 06:56:13;;;;;;;34.60;17.40;;;16.70;99.90;;;;;;5034544;28;20072;-41
2022/09/12 06:58:39;;;;;;;29.77;16.80;;;16.80;99.90;;;;;;5036597;28;20029;-41
2022/09/12 07:01:11;;;;;;;28.10;16.92;;;16.80;99.90;;;;;;5036337;28;20057;-41
2022/09/12 07:03:37;;;;;;;31.67;16.02;;;16.90;99.90;;;;;;5039699;28;20033;-41
2022/09/12 07:06:12;;;;;;;37.42;15.93;;;17.00;99.90;;;;;;5028307;28;20114;-41
2022/09/12 07:08:39;;;;;;;34.75;16.33;;;17.10;99.90;;;;;;5028129;28;20025;-42
2022/09/12 07:11:21;;;;;;;29.00;14.82;;;17.10;99.90;;;;;;5033115;28;20033;-40
2022/09/12 07:13:49;;;;;;;26.77;15.32;;;17.20;99.90;;;;;;5036210;28;20099;-41
2022/09/12 07:16:16;;;;;;;29.52;16.15;;;17.30;99.90;;;;;;5036216;28;20018;-40
2022/09/12 07:18:42;;;;;;;32.92;16.15;;;17.40;99.90;;;;;;5036161;28;20025;-42
2022/09/12 07:21:13;;;;;;;33.20;16.83;;;17.60;99.90;;;;;;5033914;28;20490;-40
2022/09/12 07:23:40;;;;;;;28.50;15.27;;;17.70;99.90;;;;;;5016322;28;20018;-41
2022/09/12 07:26:08;;;;;;;29.63;15.43;;;17.90;99.90;;;;;;5017992;28;20052;-39
2022/09/12 07:28:35;;;;;;;28.67;15.00;;;18.00;99.90;;;;;;5055828;28;20028;-41
2022/09/12 07:31:15;;;;;;;28.20;15.52;;;18.10;99.90;;;;;;5053353;28;20527;-42
2022/09/12 07:33:42;;;;;;;25.35;15.32;;;18.30;99.90;;;;;;5015758;28;20113;-39
2022/09/12 07:36:11;;;;;;;28.10;14.50;;;18.30;99.90;;;;;;5028738;28;20350;-41
2022/09/12 07:38:40;;;;;;;23.77;13.60;;;18.40;99.90;;;;;;5035587;28;20559;-39
2022/09/12 07:41:19;;;;;;;29.67;16.42;;;18.50;99.90;;;;;;5033769;28;20083;-41
2022/09/12 07:43:45;;;;;;;29.05;15.18;;;18.60;99.90;;;;;;5063013;28;20028;-37
2022/09/12 07:46:12;;;;;;;24.58;14.02;;;18.70;99.90;;;;;;5054213;28;20389;-35
2022/09/12 07:48:38;;;;;;;29.27;15.65;;;18.70;99.90;;;;;;5055426;28;20017;-39
2022/09/12 07:51:06;;;;;;;23.88;13.50;;;18.80;99.90;;;;;;5045531;28;20112;-35
2022/09/12 07:53:35;;;;;;;26.05;14.75;;;18.90;99.90;;;;;;5035364;28;20474;-37
2022/09/12 07:56:02;;;;;;;31.95;14.95;;;19.00;99.90;;;;;;5033412;28;20473;-32
2022/09/12 07:58:29;;;;;;;21.77;12.98;;;19.10;99.90;;;;;;5036219;28;20111;-30
2022/09/12 08:01:11;;;;;;;22.08;13.43;;;19.20;99.90;;;;;;5023808;28;20385;-30
2022/09/12 08:03:37;;;;;;;25.65;14.30;;;19.40;99.90;;;;;;5025139;28;20105;-35
2022/09/12 08:06:04;;;;;;;25.52;13.93;;;19.50;99.90;;;;;;5035211;28;20013;-35
2022/09/12 08:08:30;;;;;;;22.40;13.32;;;19.70;99.90;;;;;;5034974;28;20378;-37
2022/09/12 08:11:00;;;;;;;20.73;12.30;;;19.80;99.90;;;;;;5036838;28;20028;-34
2022/09/12 08:13:27;;;;;;;25.70;12.93;;;19.90;99.90;;;;;;5054933;28;20064;-36
2022/09/12 08:15:58;;;;;;;26.45;13.88;;;20.20;99.90;;;;;;5039184;28;20447;-35
2022/09/12 08:18:25;;;;;;;19.73;11.63;;;20.30;99.90;;;;;;5013911;28;20030;-34
2022/09/12 08:20:56;;;;;;;24.17;13.00;;;20.30;99.90;;;;;;5020573;28;20030;-34
2022/09/12 08:23:23;;;;;;;23.15;13.32;;;20.50;99.90;;;;;;5043553;28;20359;-35
2022/09/12 08:25:50;;;;;;;22.05;12.13;;;20.70;99.90;;;;;;5032782;28;20022;-35
2022/09/12 08:28:15;;;;;;;20.10;11.90;;;20.80;99.90;;;;;;5032626;28;20397;-36
2022/09/12 08:30:41;;;;;;;24.17;12.43;;;20.80;99.90;;;;;;5045689;28;20032;-39
2022/09/12 08:33:07;;;;;;;16.58;10.85;;;20.80;99.90;;;;;;5040699;28;20026;-40
2022/09/12 08:35:32;;;;;;;21.70;12.55;;;20.80;99.90;;;;;;5022829;28;20028;-40
2022/09/12 08:37:58;;;;;;;21.33;11.63;;;20.80;99.90;;;;;;5034396;28;20088;-39
2022/09/12 08:40:24;;;;;;;20.02;11.40;;;20.90;99.90;;;;;;5032341;28;20073;-40
2022/09/12 08:43:24;;;;;;;25.08;12.32;;;21.10;99.90;;;;;;5015010;28;20029;-41
2022/09/12 08:46:01;;;;;;;20.23;10.73;;;21.20;99.90;;;;;;4995548;28;20049;-40
2022/09/12 08:48:28;;;;;;;17.38;10.98;;;21.30;99.90;;;;;;5014858;28;20026;-35
2022/09/12 08:50:54;;;;;;;20.17;10.85;;;21.30;99.90;;;;;;5015998;28;20034;-40
2022/09/12 08:53:24;;;;;;;19.80;12.13;;;21.50;99.90;;;;;;5014510;28;20025;-41
2022/09/12 08:55:55;;;;;;;22.95;12.05;;;21.60;99.90;;;;;;5024645;28;20025;-42
2022/09/12 08:58:23;;;;;;;20.25;11.65;;;21.70;99.90;;;;;;5034822;28;20025;-37
2022/09/12 09:00:48;;;;;;;18.55;11.27;;;21.80;99.90;;;;;;5054401;28;20028;-38
2022/09/12 09:03:43;;;;;;;20.33;13.02;;;21.80;99.90;;;;;;5036171;28;20025;-52
2022/09/12 09:06:17;;;;;;;21.80;11.52;;;21.90;99.90;;;;;;5034342;28;20381;-32
2022/09/12 09:09:06;;;;;;;16.23;10.70;;;21.90;99.90;;;;;;5018920;28;20470;-31
2022/09/12 09:11:47;;;;;;;23.42;12.48;;;22.10;99.90;;;;;;5036006;28;20040;-30
2022/09/12 09:14:49;;;;;;;19.80;11.82;;;22.10;99.90;;;;;;5040794;28;20026;-34
2022/09/12 09:17:39;;;;;;;22.80;12.00;;;22.20;99.90;;;;;;5026227;28;20520;-32
2022/09/12 09:20:29;;;;;;;17.73;10.35;;;22.20;99.90;;;;;;5019498;28;20033;-29
2022/09/12 09:23:14;;;;;;;17.23;10.63;;;22.20;99.90;;;;;;5032952;28;20112;-40
2022/09/12 09:26:00;;;;;;;15.48;9.85;;;22.30;99.90;;;;;;5016713;28;20022;-40
2022/09/12 09:28:42;;;;;;;14.60;9.27;;;22.40;99.90;;;;;;5013922;28;20030;-35
2022/09/12 09:31:15;;;;;;;14.95;9.55;;;22.40;99.90;;;;;;5024205;28;20032;-37
2022/09/12 09:33:42;;;;;;;14.32;8.98;;;22.50;99.90;;;;;;5021446;28;20502;-34
2022/09/12 09:36:25;;;;;;;12.52;9.13;;;22.40;99.90;;;;;;5027024;28;20021;-32
2022/09/12 09:39:20;;;;;;;12.80;8.27;;;22.40;99.90;;;;;;5022335;28;20053;-31
2022/09/12 09:42:24;;;;;;;11.55;7.13;;;22.50;99.90;;;;;;5023928;28;20048;-35
2022/09/12 09:44:54;;;;;;;10.40;7.43;;;22.50;99.90;;;;;;5031263;28;20072;-30
2022/09/12 09:47:21;;;;;;;15.15;8.88;;;22.50;99.90;;;;;;5024710;28;20474;-33
2022/09/12 09:49:46;;;;;;;13.98;6.72;;;22.50;99.90;;;;;;5020806;28;20041;-35
2022/09/12 09:52:16;;;;;;;10.82;7.97;;;22.70;99.90;;;;;;5019211;28;20022;-35
2022/09/12 09:54:54;;;;;;;15.15;8.30;;;22.80;99.90;;;;;;5031430;28;20543;-33
2022/09/12 09:57:35;;;;;;;10.63;6.68;;;22.90;99.90;;;;;;5047137;28;20490;-35
2022/09/12 10:00:30;;;;;;;12.35;7.95;;;23.00;99.90;;;;;;5025843;28;20029;-40
2022/09/12 10:03:08;;;;;;;11.15;7.60;;;23.10;99.90;;;;;;5032156;28;20481;-38
2022/09/12 10:05:57;;;;;;;13.05;6.70;;;23.20;99.90;;;;;;5026891;28;20505;-40
2022/09/12 10:08:31;;;;;;;16.08;7.30;;;23.20;99.90;;;;;;5019553;28;20509;-37
2022/09/12 10:11:16;;;;;;;10.40;7.10;;;23.30;99.90;;;;;;5029122;28;20470;-33
2022/09/12 10:13:56;;;;;;;10.60;6.53;;;23.40;99.90;;;;;;5023999;28;20038;-33
2022/09/12 10:16:28;;;;;;;12.65;7.75;;;23.50;99.90;;;;;;5024111;28;20092;-33
2022/09/12 10:18:56;;;;;;;11.52;6.40;;;23.60;99.90;;;;;;5032824;28;20030;-39
2022/09/12 10:21:32;;;;;;;15.90;7.75;;;23.60;99.90;;;;;;5032770;28;20034;-34
2022/09/12 10:24:17;;;;;;;10.13;6.05;;;23.60;99.90;;;;;;5027575;28;20474;-31
2022/09/12 10:26:48;;;;;;;9.95;6.13;;;23.60;99.90;;;;;;5023621;28;20478;-36
2022/09/12 10:29:23;;;;;;;11.73;6.85;;;23.70;99.90;;;;;;5022790;28;20113;-35
2022/09/12 10:31:56;;;;;;;11.85;6.30;;;23.80;99.90;;;;;;5014620;28;20034;-33
2022/09/12 10:34:35;;;;;;;10.52;6.20;;;24.00;99.90;;;;;;5014744;28;20498;-35
2022/09/12 10:37:07;;;;;;;9.60;5.13;;;24.10;99.90;;;;;;5014548;28;20116;-30
2022/09/12 10:39:35;;;;;;;7.28;5.47;;;24.00;99.90;;;;;;5017517;28;20044;-34
2022/09/12 10:42:02;;;;;;;7.32;5.32;;;24.00;99.90;;;;;;5017191;28;20382;-34
2022/09/12 10:44:30;;;;;;;14.80;6.35;;;23.90;99.90;;;;;;5058515;28;20022;-34
2022/09/12 10:46:57;;;;;;;7.30;5.28;;;24.00;99.90;;;;;;5026031;28;20037;-33
2022/09/12 10:49:30;;;;;;;9.23;5.25;;;24.20;99.90;;;;;;5027161;28;20037;-36
2022/09/12 10:52:11;;;;;;;7.60;4.90;;;24.40;99.90;;;;;;5025042;28;20025;-35
2022/09/12 10:54:37;;;;;;;11.15;4.25;;;24.60;99.90;;;;;;5011279;28;20104;-38
2022/09/12 10:57:22;;;;;;;6.28;4.55;;;24.80;99.90;;;;;;5022303;28;20423;-34
2022/09/12 11:00:13;;;;;;;6.03;3.70;;;25.00;99.90;;;;;;5026986;28;20029;-32
2022/09/12 11:03:04;;;;;;;6.70;3.58;;;25.10;99.90;;;;;;5029114;28;20026;-44
2022/09/12 11:05:35;;;;;;;5.13;3.53;;;25.10;99.90;;;;;;5025653;28;20041;-32
2022/09/12 11:08:19;;;;;;;6.65;4.22;;;25.20;99.90;;;;;;5016267;28;20029;-31
2022/09/12 11:11:03;;;;;;;5.50;3.88;;;25.30;99.90;;;;;;5015726;28;20030;-35
2022/09/12 11:14:05;;;;;;;5.10;3.85;;;25.40;99.90;;;;;;5027795;28;20029;-32
2022/09/12 11:17:01;;;;;;;4.43;3.72;;;25.50;99.90;;;;;;5031337;28;20045;-30
2022/09/12 11:19:58;;;;;;;3.78;3.47;;;25.50;99.90;;;;;;5036134;28;20036;-30
2022/09/12 11:22:30;;;;;;;4.38;3.53;;;25.50;99.90;;;;;;5033275;28;20080;-37
2022/09/12 11:25:32;;;;;;;6.30;3.63;;;25.60;99.90;;;;;;5027893;28;20065;-34
2022/09/12 11:28:18;;;;;;;3.58;2.88;;;25.70;99.90;;;;;;5035430;28;20474;-34
2022/09/12 11:31:00;;;;;;;;;;;25.70;99.90;;;;;;5035474;28;20033;-31
2022/09/12 11:33:35;;;;;;;7.32;4.15;;;25.60;99.90;;;;;;5029180;28;19917;-34
2022/09/12 11:36:03;;;;;;;6.13;3.33;;;25.60;99.90;;;;;;5020875;28;20033;-49
2022/09/12 11:38:44;;;;;;;10.18;4.00;;;25.60;99.90;;;;;;5015557;28;20046;-31
2022/09/12 11:41:38;;;;;;;7.68;3.45;;;25.50;99.90;;;;;;5026543;28;20034;-42
2022/09/12 11:44:31;;;;;;;8.20;4.00;;;25.40;99.90;;;;;;5034644;28;20038;-30
2022/09/12 11:46:58;;;;;;;5.82;3.80;;;25.50;99.90;;;;;;5039694;28;20040;-36
2022/09/12 11:49:39;;;;;;;3.63;3.33;;;25.60;99.90;;;;;;5019068;28;20049;-33
2022/09/12 11:52:23;;;;;;;5.68;3.90;;;25.70;99.90;;;;;;5015812;28;20490;-33
2022/09/12 11:54:56;;;;;;;3.13;2.25;;;25.70;99.90;;;;;;5016562;28;20153;-31
2022/09/12 11:57:32;;;;;;;3.28;2.97;;;25.80;99.90;;;;;;5031154;28;20060;-30
2022/09/12 12:00:08;;;;;;;8.25;3.05;;;25.80;99.90;;;;;;5035227;28;20481;-34
2022/09/12 12:02:42;;;;;;;4.00;3.53;;;25.80;99.90;;;;;;5021533;28;20494;-32
2022/09/12 12:05:25;;;;;;;4.35;2.83;;;25.70;99.90;;;;;;5032759;28;20104;-34
2022/09/12 12:07:54;;;;;;;4.07;3.42;;;25.70;99.90;;;;;;5015431;28;20065;-34
2022/09/12 12:10:37;;;;;;;4.53;3.60;;;25.80;99.90;;;;;;5016761;28;20033;-36
2022/09/12 12:13:32;;;;;;;4.53;3.40;;;26.00;99.90;;;;;;5017143;28;20037;-33
2022/09/12 12:16:10;;;;;;;3.95;2.95;;;26.20;99.90;;;;;;5032589;28;20029;-35
2022/09/12 12:18:37;;;;;;;3.78;2.58;;;26.30;99.90;;;;;;5031690;28;20033;-35
2022/09/12 12:21:31;;;;;;;3.40;2.60;;;26.40;99.90;;;;;;5033895;28;20517;-30
2022/09/12 12:24:08;;;;;;;3.25;3.00;;;26.40;99.90;;;;;;5033850;28;20080;-36
2022/09/12 12:26:39;;;;;;;2.47;2.30;;;26.40;99.90;;;;;;5034126;28;20385;-35
2022/09/12 12:29:12;;;;;;;2.55;2.17;;;26.40;99.80;;;;;;5027833;28;20593;-33
2022/09/12 12:32:02;;;;;;;3.22;2.90;;;26.50;99.50;;;;;;5029188;28;20362;-33
2022/09/12 12:34:31;;;;;;;3.22;2.05;;;26.60;98.90;;;;;;5023593;28;20478;-35
2022/09/12 12:36:58;;;;;;;3.10;2.30;;;26.50;99.70;;;;;;5034443;28;20032;-34
2022/09/12 12:39:32;;;;;;;2.88;2.42;;;26.60;99.30;;;;;;5025231;28;20508;-31
2022/09/12 12:41:59;;;;;;;7.00;3.22;;;26.60;98.90;;;;;;5014889;28;20484;-31
2022/09/12 12:44:43;;;;;;;2.80;2.57;;;26.50;98.70;;;;;;5022886;28;20422;-29
2022/09/12 12:47:33;;;;;;;6.35;2.70;;;26.20;99.00;;;;;;5032173;28;20083;-33
2022/09/12 12:50:04;;;;;;;3.55;2.92;;;26.20;99.50;;;;;;5033989;28;20041;-33
2022/09/12 12:52:55;;;;;;;4.55;2.90;;;26.20;99.10;;;;;;5027305;28;20474;-33
2022/09/12 12:55:25;;;;;;;3.58;2.45;;;26.20;99.00;;;;;;5024891;28;20045;-32
2022/09/12 12:57:53;;;;;;;2.05;1.88;;;26.20;98.70;;;;;;5025045;28;20018;-34
2022/09/12 13:00:27;;;;;;;3.95;2.60;;;26.20;99.50;;;;;;5024231;28;20041;-38
2022/09/12 13:03:01;;;;;;;3.90;2.63;;;26.30;98.70;;;;;;5027240;28;20061;-30
2022/09/12 13:05:29;;;;;;;3.33;2.55;;;26.30;98.90;;;;;;5026479;28;20033;-32
2022/09/12 13:08:18;;;;;;;4.55;2.42;;;26.30;99.00;;;;;;5015847;28;20544;-31